createdAt,value
2022-11-02T00:00:25.092Z,2.85
2022-11-02T00:02:52.203Z,3.15
2022-11-02T00:05:24.612Z,2.72
2022-11-02T00:07:53.309Z,2.50
2022-11-02T00:10:22.865Z,2.35
2022-11-02T00:12:51.095Z,3.08
2022-11-02T00:15:19.150Z,2.75
2022-11-02T00:17:51.088Z,2.80
2022-11-02T00:20:20.296Z,3.10
2022-11-02T00:22:50.894Z,2.70
2022-11-02T00:25:20.413Z,3.20
2022-11-02T00:27:47.434Z,2.90
2022-11-02T00:30:15.464Z,3.45
2022-11-02T00:32:42.426Z,3.65
2022-11-02T00:35:10.346Z,2.53
2022-11-02T00:37:37.460Z,3.22
2022-11-02T00:40:06.220Z,2.90
2022-11-02T00:42:33.319Z,3.28
2022-11-02T00:45:00.439Z,3.20
2022-11-02T00:47:27.511Z,3.10
2022-11-02T00:49:54.732Z,3.10
2022-11-02T00:52:21.844Z,2.90
2022-11-02T00:54:51.852Z,3.03
2022-11-02T00:57:19.065Z,3.28
2022-11-02T00:59:46.271Z,2.45
2022-11-02T01:02:16.216Z,3.22
2022-11-02T01:04:43.389Z,2.65
2022-11-02T01:07:10.495Z,3.13
2022-11-02T01:09:37.557Z,3.10
2022-11-02T01:12:05.931Z,3.30
2022-11-02T01:14:33.174Z,2.58
2022-11-02T01:17:00.206Z,3.28
2022-11-02T01:19:27.283Z,2.50
2022-11-02T01:21:54.255Z,2.33
2022-11-02T01:24:21.297Z,3.28
2022-11-02T01:26:52.581Z,2.85
2022-11-02T01:29:19.886Z,2.60
2022-11-02T01:31:46.940Z,3.17
2022-11-02T01:34:14.425Z,2.70
2022-11-02T01:36:44.628Z,3.13
2022-11-02T01:39:11.608Z,3.10
2022-11-02T01:41:38.808Z,3.45
2022-11-02T01:44:31.968Z,3.08
2022-11-02T01:47:27.343Z,3.28
2022-11-02T01:50:08.719Z,2.97
2022-11-02T01:52:37.742Z,3.35
2022-11-02T01:55:22.403Z,3.00
2022-11-02T01:58:01.019Z,3.15
2022-11-02T02:00:28.308Z,2.92
2022-11-02T02:03:16.852Z,3.03
2022-11-02T02:05:55.117Z,2.67
2022-11-02T02:08:25.339Z,2.97
2022-11-02T02:10:56.839Z,3.10
2022-11-02T02:13:25.431Z,3.17
2022-11-02T02:16:16.083Z,3.13
2022-11-02T02:18:58.301Z,2.22
2022-11-02T02:21:51.413Z,2.20
2022-11-02T02:24:47.153Z,2.08
2022-11-02T02:27:30.527Z,2.15
2022-11-02T02:30:10.633Z,1.55
2022-11-02T02:33:10.487Z,2.20
2022-11-02T02:36:00.740Z,1.10
2022-11-02T02:38:52.925Z,0.90
2022-11-02T02:41:36.363Z,1.02
2022-11-02T02:44:05.341Z,1.10
2022-11-02T02:46:56.280Z,1.30
2022-11-02T02:49:53.880Z,1.15
2022-11-02T02:52:23.495Z,1.10
2022-11-02T02:54:53.151Z,1.35
2022-11-02T02:57:22.544Z,1.35
2022-11-02T02:59:49.975Z,1.45
2022-11-02T03:02:34.092Z,1.30
2022-11-02T03:05:01.287Z,1.23
2022-11-02T03:07:34.306Z,1.42
2022-11-02T03:10:33.732Z,1.08
2022-11-02T03:13:21.050Z,1.38
2022-11-02T03:16:26.356Z,1.60
2022-11-02T03:19:18.059Z,1.20
2022-11-02T03:21:48.577Z,2.95
2022-11-02T03:24:34.134Z,1.75
2022-11-02T03:27:16.200Z,14.18
2022-11-02T03:29:56.249Z,12.30
2022-11-02T03:33:03.997Z,12.02
2022-11-02T03:35:54.624Z,8.82
2022-11-02T03:38:56.125Z,4.65
2022-11-02T03:41:25.948Z,3.78
2022-11-02T03:44:02.841Z,3.55
2022-11-02T03:46:32.935Z,4.43
2022-11-02T03:49:06.035Z,3.10
2022-11-02T03:51:40.364Z,2.97
2022-11-02T03:54:37.669Z,2.70
2022-11-02T03:57:07.616Z,2.83
2022-11-02T03:59:34.832Z,3.65
2022-11-02T04:02:02.724Z,3.90
2022-11-02T04:04:30.440Z,4.28
2022-11-02T04:06:57.715Z,3.65
2022-11-02T04:09:24.762Z,2.72
2022-11-02T04:12:10.803Z,3.10
2022-11-02T04:14:37.900Z,3.80
2022-11-02T04:20:04.957Z,4.35
2022-11-02T04:22:51.480Z,3.80
2022-11-02T04:25:20.100Z,1.83
2022-11-02T04:28:09.861Z,2.10
2022-11-02T04:30:45.532Z,1.55
2022-11-02T04:33:31.513Z,1.45
2022-11-02T04:36:24.663Z,2.70
2022-11-02T04:38:55.903Z,3.30
2022-11-02T04:41:42.068Z,3.25
2022-11-02T04:44:35.083Z,2.45
2022-11-02T04:47:10.303Z,2.30
2022-11-02T04:49:37.350Z,3.13
2022-11-02T04:52:06.812Z,2.50
2022-11-02T04:54:35.788Z,2.28
2022-11-02T04:57:05.276Z,2.22
2022-11-02T04:59:33.498Z,1.67
2022-11-02T05:02:00.579Z,1.70
2022-11-02T05:04:28.314Z,2.10
2022-11-02T05:07:01.055Z,1.95
2022-11-02T05:09:28.774Z,2.00
2022-11-02T05:11:55.989Z,1.95
2022-11-02T05:14:23.414Z,1.85
2022-11-02T05:16:51.386Z,2.20
2022-11-02T05:19:18.465Z,1.73
2022-11-02T05:21:45.536Z,1.50
2022-11-02T05:24:13.367Z,1.77
2022-11-02T05:26:40.484Z,1.50
2022-11-02T05:29:09.235Z,1.20
2022-11-02T05:31:37.165Z,1.27
2022-11-02T05:34:04.149Z,1.58
2022-11-02T05:36:31.313Z,1.30
2022-11-02T05:38:59.339Z,1.98
2022-11-02T05:41:27.233Z,1.33
2022-11-02T05:43:56.193Z,1.38
2022-11-02T05:46:25.012Z,1.45
2022-11-02T05:48:52.228Z,1.33
2022-11-02T05:51:19.251Z,0.98
2022-11-02T05:53:46.218Z,1.23
2022-11-02T05:56:14.599Z,1.45
2022-11-02T05:58:41.815Z,1.40
2022-11-02T06:01:10.747Z,0.93
2022-11-02T06:03:37.911Z,1.00
2022-11-02T06:06:10.309Z,1.08
2022-11-02T06:08:38.991Z,1.40
2022-11-02T06:11:11.633Z,1.08
2022-11-02T06:13:39.566Z,1.15
2022-11-02T06:16:09.643Z,1.20
2022-11-02T06:18:38.579Z,0.98
2022-11-02T06:21:06.114Z,1.05
2022-11-02T06:23:33.407Z,0.93
2022-11-02T06:26:01.256Z,1.38
2022-11-02T06:28:29.577Z,1.05
2022-11-02T06:30:57.011Z,1.10
2022-11-02T06:33:24.142Z,1.35
2022-11-02T06:35:53.589Z,1.00
2022-11-02T06:38:21.092Z,1.67
2022-11-02T06:41:04.159Z,1.20
2022-11-02T06:43:32.125Z,1.70
2022-11-02T06:45:59.789Z,0.90
2022-11-02T06:48:34.244Z,1.00
2022-11-02T06:51:03.502Z,1.10
2022-11-02T06:53:30.633Z,1.15
2022-11-02T06:55:59.598Z,0.95
2022-11-02T06:58:26.827Z,0.80
2022-11-02T07:01:07.245Z,1.35
2022-11-02T07:03:35.175Z,0.98
2022-11-02T07:06:03.181Z,0.95
2022-11-02T07:08:30.794Z,1.10
2022-11-02T07:10:58.115Z,1.27
2022-11-02T07:13:25.350Z,1.65
2022-11-02T07:15:54.598Z,1.52
2022-11-02T07:18:22.639Z,2.05
2022-11-02T07:20:49.776Z,1.67
2022-11-02T07:23:16.831Z,1.80
2022-11-02T07:25:43.903Z,1.95
2022-11-02T07:28:11.094Z,1.75
2022-11-02T07:30:38.105Z,1.80
2022-11-02T07:33:05.436Z,1.65
2022-11-02T07:35:34.205Z,1.65
2022-11-02T07:38:05.015Z,1.52
2022-11-02T07:40:34.772Z,1.60
2022-11-02T07:43:03.789Z,1.45
2022-11-02T07:45:38.409Z,1.38
2022-11-02T07:48:05.437Z,2.00
2022-11-02T07:50:32.452Z,2.22
2022-11-02T07:53:00.220Z,1.42
2022-11-02T07:55:29.981Z,2.03
2022-11-02T07:58:11.451Z,1.30
2022-11-02T08:00:59.563Z,1.05
2022-11-02T08:03:58.798Z,1.98
2022-11-02T08:07:04.760Z,2.40
2022-11-02T08:09:55.188Z,2.30
2022-11-02T08:12:22.199Z,1.92
2022-11-02T08:14:49.625Z,2.83
2022-11-02T08:17:16.595Z,3.20
2022-11-02T08:19:43.589Z,2.30
2022-11-02T08:22:10.841Z,3.50
2022-11-02T08:24:40.542Z,3.63
2022-11-02T08:27:07.616Z,2.58
2022-11-02T08:29:35.491Z,2.30
2022-11-02T08:32:03.134Z,1.65
2022-11-02T08:34:30.085Z,1.33
2022-11-02T08:36:57.449Z,1.52
2022-11-02T08:39:24.483Z,1.38
2022-11-02T08:41:51.995Z,1.42
2022-11-02T08:44:19.029Z,1.42
2022-11-02T08:46:46.240Z,1.30
2022-11-02T08:49:13.227Z,0.98
2022-11-02T08:51:40.161Z,2.10
2022-11-02T08:54:07.117Z,1.85
2022-11-02T08:56:34.062Z,1.92
2022-11-02T08:59:01.512Z,1.63
2022-11-02T09:01:29.148Z,1.70
2022-11-02T09:03:56.712Z,1.83
2022-11-02T09:06:23.817Z,2.28
2022-11-02T09:08:53.803Z,2.20
2022-11-02T09:11:23.494Z,2.10
2022-11-02T09:13:56.525Z,2.03
2022-11-02T09:16:23.973Z,2.08
2022-11-02T09:18:51.006Z,2.33
2022-11-02T09:21:17.997Z,1.52
2022-11-02T09:23:48.565Z,1.77
2022-11-02T09:26:19.189Z,2.05
2022-11-02T09:28:49.153Z,1.80
2022-11-02T09:31:16.128Z,1.65
2022-11-02T09:33:43.457Z,1.60
2022-11-02T09:36:11.340Z,1.88
2022-11-02T09:38:38.374Z,1.17
2022-11-02T09:41:19.289Z,1.40
2022-11-02T09:44:11.314Z,1.48
2022-11-02T09:46:43.975Z,1.80
2022-11-02T09:49:20.933Z,1.00
2022-11-02T09:51:55.300Z,0.95
2022-11-02T09:54:35.244Z,1.15
2022-11-02T09:57:12.050Z,0.98
2022-11-02T09:59:40.618Z,1.92
2022-11-02T10:02:35.201Z,1.60
2022-11-02T10:05:22.082Z,1.17
2022-11-02T10:08:17.478Z,1.08
2022-11-02T10:11:05.370Z,0.95
2022-11-02T10:13:41.240Z,0.93
2022-11-02T10:16:19.377Z,1.00
2022-11-02T10:18:51.414Z,1.15
2022-11-02T10:23:55.189Z,1.60
2022-11-02T10:26:34.808Z,1.30
2022-11-02T10:29:28.233Z,1.10
2022-11-02T10:31:55.216Z,1.00
2022-11-02T10:34:28.523Z,1.40
2022-11-02T10:37:20.261Z,1.00
2022-11-02T10:40:16.083Z,1.10
2022-11-02T10:43:02.326Z,0.60
2022-11-02T10:46:24.737Z,1.02
2022-11-02T10:49:42.818Z,1.10
2022-11-02T10:52:15.124Z,1.20
2022-11-02T10:54:42.314Z,0.70
2022-11-02T10:57:14.545Z,1.30
2022-11-02T10:59:41.917Z,1.27
2022-11-02T11:02:14.478Z,1.38
2022-11-02T11:04:42.833Z,0.73
2022-11-02T11:07:24.171Z,1.17
2022-11-02T11:09:56.442Z,1.30
2022-11-02T11:12:31.209Z,0.98
2022-11-02T11:20:38.510Z,0.95
2022-11-02T11:23:30.368Z,0.90
2022-11-02T11:26:06.708Z,1.40
2022-11-02T11:28:54.255Z,0.95
2022-11-02T11:31:22.031Z,1.15
2022-11-02T11:33:57.094Z,1.10
2022-11-02T11:36:35.231Z,1.30
2022-11-02T11:39:08.640Z,1.80
2022-11-02T11:41:41.319Z,1.00
2022-11-02T11:44:14.786Z,0.88
2022-11-02T11:46:46.265Z,1.15
2022-11-02T11:49:55.414Z,1.25
2022-11-02T11:52:31.494Z,1.00
2022-11-02T11:55:23.069Z,1.17
2022-11-02T11:58:06.623Z,1.30
2022-11-02T12:00:34.467Z,1.73
2022-11-02T12:03:09.759Z,1.65
2022-11-02T12:06:02.057Z,1.35
2022-11-02T12:08:40.593Z,1.63
2022-11-02T12:11:32.942Z,1.30
2022-11-02T12:14:34.141Z,1.60
2022-11-02T12:17:29.694Z,1.50
2022-11-02T12:20:51.857Z,1.20
2022-11-02T12:24:10.485Z,0.93
2022-11-02T12:27:08.189Z,1.00
2022-11-02T12:30:15.622Z,2.33
2022-11-02T12:32:55.310Z,0.95
2022-11-02T12:35:34.212Z,0.98
2022-11-02T12:38:53.563Z,1.38
2022-11-02T12:42:01.041Z,0.80
2022-11-02T12:44:51.925Z,1.38
2022-11-02T12:47:50.629Z,0.88
2022-11-02T12:50:33.858Z,1.00
2022-11-02T12:53:44.031Z,1.20
2022-11-02T12:56:28.126Z,0.75
2022-11-02T12:58:56.209Z,1.05
2022-11-02T13:01:40.933Z,0.93
2022-11-02T13:04:34.045Z,1.02
2022-11-02T13:07:15.160Z,1.45
2022-11-02T13:10:17.618Z,1.00
2022-11-02T13:12:46.102Z,0.90
2022-11-02T13:15:20.430Z,0.88
2022-11-02T13:17:53.489Z,1.10
2022-11-02T13:20:32.769Z,1.20
2022-11-02T13:23:16.091Z,1.30
2022-11-02T13:25:51.837Z,1.13
2022-11-02T13:28:49.521Z,1.10
2022-11-02T13:31:39.487Z,1.35
2022-11-02T13:34:13.827Z,1.02
2022-11-02T13:36:42.271Z,1.08
2022-11-02T13:39:25.471Z,1.08
2022-11-02T13:42:08.141Z,1.15
2022-11-02T13:45:24.459Z,0.85
2022-11-02T13:48:31.904Z,1.17
2022-11-02T13:51:08.345Z,0.90
2022-11-02T13:53:40.845Z,0.88
2022-11-02T13:56:22.535Z,1.33
2022-11-02T13:59:00.997Z,0.60
2022-11-02T14:01:32.731Z,0.80
2022-11-02T14:04:09.325Z,0.82
2022-11-02T14:06:52.742Z,0.95
2022-11-02T14:09:40.139Z,0.65
2022-11-02T14:12:22.423Z,0.70
2022-11-02T14:15:14.076Z,1.10
2022-11-02T14:17:53.356Z,1.10
2022-11-02T14:20:42.005Z,0.90
2022-11-02T14:23:11.885Z,0.82
2022-11-02T14:25:58.080Z,0.77
2022-11-02T14:28:41.781Z,1.13
2022-11-02T14:31:17.876Z,1.20
2022-11-02T14:34:26.261Z,1.90
2022-11-02T14:37:25.400Z,1.30
2022-11-02T14:40:18.223Z,1.77
2022-11-02T14:43:40.228Z,0.90
2022-11-02T14:46:39.714Z,1.00
2022-11-02T14:49:32.908Z,1.77
2022-11-02T14:52:24.284Z,1.52
2022-11-02T14:55:19.081Z,1.00
2022-11-02T14:58:11.074Z,1.25
2022-11-02T15:00:47.813Z,0.98
2022-11-02T15:03:29.273Z,1.42
2022-11-02T15:06:10.579Z,1.20
2022-11-02T15:08:54.767Z,1.23
2022-11-02T15:11:46.919Z,1.33
2022-11-02T15:14:33.103Z,1.35
2022-11-02T15:17:00.246Z,1.50
2022-11-02T15:20:14.744Z,1.25
2022-11-02T15:22:55.184Z,1.08
2022-11-02T15:25:37.246Z,1.05
2022-11-02T15:30:43.983Z,1.38
2022-11-02T15:33:32.964Z,1.50
2022-11-02T15:36:00.759Z,1.42
2022-11-02T15:38:33.872Z,0.70
2022-11-02T15:41:14.215Z,0.63
2022-11-02T15:44:00.893Z,0.90
2022-11-02T15:47:20.939Z,1.13
2022-11-02T15:50:31.847Z,0.93
2022-11-02T15:53:23.787Z,0.80
2022-11-02T15:56:18.484Z,1.00
2022-11-02T15:59:39.883Z,1.35
2022-11-02T16:02:21.884Z,1.95
2022-11-02T16:07:19.703Z,2.28
2022-11-02T16:09:48.087Z,1.45
2022-11-02T16:12:24.158Z,1.20
2022-11-02T16:14:55.719Z,2.42
2022-11-02T16:17:31.212Z,1.77
2022-11-02T16:20:21.925Z,1.45
2022-11-02T16:22:53.543Z,1.90
2022-11-02T16:25:46.357Z,1.20
2022-11-02T16:28:33.234Z,1.13
2022-11-02T16:31:18.359Z,1.15
2022-11-02T16:33:55.452Z,1.58
2022-11-02T16:36:27.708Z,1.58
2022-11-02T16:39:03.478Z,1.45
2022-11-02T16:41:33.199Z,0.95
2022-11-02T16:44:11.473Z,1.15
2022-11-02T16:46:55.732Z,1.10
2022-11-02T16:49:25.506Z,1.10
2022-11-02T16:51:57.168Z,0.70
2022-11-02T16:54:42.182Z,1.60
2022-11-02T16:57:12.568Z,1.30
2022-11-02T17:00:20.643Z,1.20
2022-11-02T17:02:48.208Z,1.10
2022-11-02T17:05:25.241Z,1.17
2022-11-02T17:08:09.571Z,0.95
2022-11-02T17:10:38.674Z,1.15
2022-11-02T17:13:18.775Z,1.25
2022-11-02T17:15:50.059Z,1.10
2022-11-02T17:18:23.140Z,1.40
2022-11-02T17:21:13.006Z,1.30
2022-11-02T17:23:43.888Z,1.80
2022-11-02T17:26:23.250Z,1.70
2022-11-02T17:28:56.292Z,1.17
2022-11-02T17:31:30.651Z,1.88
2022-11-02T17:34:02.832Z,1.58
2022-11-02T17:39:02.326Z,1.83
2022-11-02T17:41:55.735Z,1.20
2022-11-02T17:44:22.774Z,1.60
2022-11-02T17:46:49.768Z,1.67
2022-11-02T17:49:16.812Z,1.48
2022-11-02T17:51:43.961Z,1.48
2022-11-02T17:54:14.159Z,2.10
2022-11-02T17:56:42.541Z,2.03
2022-11-02T17:59:09.771Z,1.70
2022-11-02T18:01:37.383Z,1.50
2022-11-02T18:04:04.685Z,1.50
2022-11-02T18:06:31.937Z,0.80
2022-11-02T18:09:11.267Z,1.38
2022-11-02T18:11:38.282Z,1.30
2022-11-02T18:14:05.635Z,1.90
2022-11-02T18:16:32.756Z,1.73
2022-11-02T18:19:02.987Z,2.25
2022-11-02T18:21:30.200Z,2.38
2022-11-02T18:23:57.648Z,2.70
2022-11-02T18:26:24.739Z,3.38
2022-11-02T18:28:51.721Z,4.47
2022-11-02T18:31:18.798Z,4.57
2022-11-02T18:33:45.880Z,4.70
2022-11-02T18:36:12.880Z,3.53
2022-11-02T18:38:40.124Z,3.80
2022-11-02T18:41:26.927Z,3.75
2022-11-02T18:44:04.101Z,3.83
2022-11-02T18:46:33.956Z,4.38
2022-11-02T18:49:01.399Z,3.85
2022-11-02T18:51:28.849Z,4.03
2022-11-02T18:54:02.252Z,3.75
2022-11-02T18:56:30.294Z,3.90
2022-11-02T18:58:57.585Z,3.33
2022-11-02T19:01:26.220Z,3.40
2022-11-02T19:03:58.833Z,3.70
2022-11-02T19:06:47.767Z,4.82
2022-11-02T19:09:20.038Z,4.88
2022-11-02T19:12:00.583Z,3.75
2022-11-02T19:14:32.897Z,6.72
2022-11-02T19:17:00.460Z,9.82
2022-11-02T19:19:27.611Z,9.82
2022-11-02T19:21:54.625Z,6.38
2022-11-02T19:24:21.857Z,6.80
2022-11-02T19:26:49.547Z,5.50
2022-11-02T19:29:16.829Z,6.35
2022-11-02T19:31:44.132Z,6.85
2022-11-02T19:34:11.566Z,6.63
2022-11-02T19:36:39.079Z,5.82
2022-11-02T19:39:09.228Z,5.97
2022-11-02T19:41:38.595Z,5.63
2022-11-02T19:44:06.725Z,6.07
2022-11-02T19:46:34.145Z,7.57
2022-11-02T19:49:01.193Z,8.10
2022-11-02T19:51:31.926Z,8.38
2022-11-02T19:54:01.191Z,7.65
2022-11-02T19:56:34.648Z,8.95
2022-11-02T19:59:02.956Z,8.65
2022-11-02T20:01:34.257Z,8.55
2022-11-02T20:04:04.302Z,8.00
2022-11-02T20:06:38.847Z,7.65
2022-11-02T20:09:10.921Z,9.23
2022-11-02T20:14:06.761Z,7.43
2022-11-02T20:16:33.765Z,7.45
2022-11-02T20:19:00.875Z,7.90
2022-11-02T20:21:34.545Z,7.80
2022-11-02T20:24:06.287Z,8.98
2022-11-02T20:26:35.712Z,8.93
2022-11-02T20:29:04.924Z,8.45
2022-11-02T20:31:35.469Z,8.45
2022-11-02T20:34:04.507Z,8.15
2022-11-02T20:36:31.524Z,8.70
2022-11-02T20:38:59.413Z,8.15
2022-11-02T20:41:26.619Z,7.70
2022-11-02T20:43:55.688Z,6.60
2022-11-02T20:46:37.467Z,6.82
2022-11-02T20:49:20.078Z,7.15
2022-11-02T20:51:53.036Z,6.82
2022-11-02T20:54:22.190Z,6.65
2022-11-02T20:56:49.997Z,6.22
2022-11-02T20:59:17.564Z,6.00
2022-11-02T21:01:44.931Z,6.50
2022-11-02T21:04:18.593Z,6.55
2022-11-02T21:06:48.208Z,6.35
2022-11-02T21:09:15.672Z,5.78
2022-11-02T21:12:00.872Z,6.57
2022-11-02T21:14:28.286Z,5.35
2022-11-02T21:16:55.530Z,5.40
2022-11-02T21:19:22.610Z,4.90
2022-11-02T21:21:50.473Z,4.13
2022-11-02T21:24:19.714Z,4.18
2022-11-02T21:26:46.671Z,4.28
2022-11-02T21:29:13.906Z,4.13
2022-11-02T21:31:40.943Z,4.07
2022-11-02T21:34:07.948Z,3.97
2022-11-02T21:36:34.909Z,4.80
2022-11-02T21:39:01.952Z,4.00
2022-11-02T21:41:29.538Z,4.47
2022-11-02T21:43:56.671Z,5.15
2022-11-02T21:46:26.972Z,4.95
2022-11-02T21:48:55.732Z,3.80
2022-11-02T21:51:23.249Z,4.32
2022-11-02T21:53:51.363Z,5.38
2022-11-02T21:56:25.784Z,5.30
2022-11-02T21:58:54.710Z,5.28
2022-11-02T22:01:44.327Z,4.95
2022-11-02T22:04:17.324Z,4.45
2022-11-02T22:06:44.385Z,4.40
2022-11-02T22:09:13.277Z,3.80
2022-11-02T22:11:40.937Z,3.60
2022-11-02T22:14:08.117Z,5.30
2022-11-02T22:16:39.053Z,6.70
2022-11-02T22:19:09.310Z,7.22
2022-11-02T22:21:39.449Z,7.07
2022-11-02T22:24:07.649Z,7.57
2022-11-02T22:26:37.218Z,8.07
2022-11-02T22:29:05.878Z,9.57
2022-11-02T22:31:36.604Z,8.30
2022-11-02T22:34:06.379Z,9.15
2022-11-02T22:36:35.195Z,9.90
2022-11-02T22:39:05.012Z,10.23
2022-11-02T22:41:37.515Z,10.02
2022-11-02T22:44:13.761Z,10.07
2022-11-02T22:46:46.905Z,10.43
2022-11-02T22:49:16.130Z,9.68
2022-11-02T22:51:46.629Z,9.98
2022-11-02T22:54:16.967Z,9.38
2022-11-02T22:56:45.708Z,9.07
2022-11-02T22:59:13.486Z,7.90
2022-11-02T23:01:41.198Z,8.15
2022-11-02T23:04:10.528Z,8.00
2022-11-02T23:06:37.600Z,8.15
2022-11-02T23:09:05.420Z,7.95
2022-11-02T23:11:39.247Z,7.57
2022-11-02T23:14:11.994Z,8.27
2022-11-02T23:16:43.834Z,7.50
2022-11-02T23:19:25.053Z,8.48
2022-11-02T23:22:30.285Z,8.02
2022-11-02T23:25:11.277Z,8.65
2022-11-02T23:28:00.411Z,7.13
2022-11-02T23:30:55.532Z,7.78
2022-11-02T23:33:28.625Z,7.22
2022-11-02T23:36:15.410Z,7.93
2022-11-02T23:39:03.729Z,7.28
2022-11-02T23:41:32.975Z,7.68
2022-11-02T23:44:12.502Z,7.28
2022-11-02T23:46:45.683Z,6.55
2022-11-02T23:49:13.626Z,6.40
2022-11-02T23:51:59.522Z,6.80
2022-11-02T23:54:45.486Z,6.40
2022-11-02T23:57:12.898Z,7.18
2022-11-02T23:59:40.271Z,7.13
